createdAt,value
2022-08-29T00:12:57.880Z,24.30
2022-08-29T00:28:03.133Z,24.10
2022-08-29T00:43:09.137Z,24.20
2022-08-29T00:58:19.208Z,24.10
2022-08-29T01:13:27.311Z,24.10
2022-08-29T01:28:33.870Z,24.00
2022-08-29T01:43:44.251Z,23.90
2022-08-29T01:58:51.066Z,24.00
2022-08-29T02:13:57.082Z,23.80
2022-08-29T02:29:02.054Z,23.70
2022-08-29T02:44:07.235Z,23.60
2022-08-29T02:59:12.337Z,23.30
2022-08-29T03:14:16.741Z,23.60
2022-08-29T03:29:21.171Z,23.20
2022-08-29T03:44:26.068Z,23.40
2022-08-29T03:59:33.124Z,23.30
2022-08-29T04:14:37.533Z,23.30
2022-08-29T04:29:41.904Z,23.20
2022-08-29T04:44:46.702Z,23.10
2022-08-29T04:59:55.115Z,23.10
2022-08-29T05:14:59.520Z,23.10
2022-08-29T05:30:06.208Z,23.00
2022-08-29T05:45:11.755Z,22.90
2022-08-29T06:00:17.265Z,22.90
2022-08-29T06:15:22.511Z,22.80
2022-08-29T06:30:27.236Z,22.80
2022-08-29T06:45:31.707Z,23.00
2022-08-29T07:00:36.075Z,23.10
2022-08-29T07:15:40.511Z,23.10
2022-08-29T07:30:45.071Z,23.10
2022-08-29T07:45:49.525Z,23.20
2022-08-29T08:00:53.981Z,23.20
2022-08-29T08:15:58.382Z,23.40
2022-08-29T08:31:06.712Z,23.10
2022-08-29T08:46:11.476Z,23.50
2022-08-29T09:01:23.883Z,23.70
2022-08-29T09:16:32.145Z,23.90
2022-08-29T09:31:37.533Z,24.00
2022-08-29T09:46:42.748Z,23.90
2022-08-29T10:01:47.202Z,24.30
2022-08-29T10:17:20.511Z,24.30
2022-08-29T10:32:36.544Z,24.50
2022-08-29T10:47:45.122Z,24.80
2022-08-29T11:02:56.567Z,25.10
2022-08-29T11:18:08.450Z,25.40
2022-08-29T11:33:21.369Z,25.50
2022-08-29T11:48:34.879Z,25.70
2022-08-29T12:03:48.000Z,25.90
2022-08-29T12:18:53.522Z,26.10
2022-08-29T12:34:14.527Z,26.40
2022-08-29T12:49:25.346Z,26.70
2022-08-29T13:04:33.680Z,27.20
2022-08-29T13:19:38.328Z,27.70
2022-08-29T13:35:06.304Z,28.50
2022-08-29T13:50:12.464Z,29.50
2022-08-29T14:05:17.015Z,31.20
2022-08-29T14:20:22.019Z,33.80
2022-08-29T14:35:31.572Z,36.60
2022-08-29T14:50:36.551Z,37.90
2022-08-29T15:05:42.701Z,38.60
2022-08-29T15:20:49.549Z,39.20
2022-08-29T15:35:54.244Z,40.00
2022-08-29T15:50:58.581Z,39.90
2022-08-29T16:06:04.306Z,39.80
2022-08-29T16:21:09.092Z,38.40
2022-08-29T16:36:14.132Z,37.80
2022-08-29T16:51:19.128Z,35.70
2022-08-29T17:06:23.975Z,35.50
2022-08-29T17:21:28.677Z,34.90
2022-08-29T17:36:34.187Z,33.80
2022-08-29T17:51:39.980Z,32.70
2022-08-29T18:06:45.202Z,31.80
2022-08-29T18:21:51.779Z,31.30
2022-08-29T18:36:56.173Z,30.50
2022-08-29T18:52:00.565Z,29.60
2022-08-29T19:07:05.339Z,29.30
2022-08-29T19:22:11.718Z,29.00
2022-08-29T19:37:16.158Z,28.50
2022-08-29T19:52:20.592Z,28.10
2022-08-29T20:07:25.140Z,27.70
2022-08-29T20:22:30.065Z,27.40
2022-08-29T20:37:34.847Z,26.90
2022-08-29T20:52:39.542Z,26.80
2022-08-29T21:07:47.033Z,26.60
2022-08-29T21:22:51.693Z,26.40
2022-08-29T21:37:56.151Z,26.10
2022-08-29T21:53:00.584Z,25.90
2022-08-29T22:08:05.236Z,25.80
2022-08-29T22:23:10.562Z,25.50
2022-08-29T22:38:15.021Z,25.50
2022-08-29T22:53:19.904Z,25.50
2022-08-29T23:08:27.620Z,25.20
2022-08-29T23:23:32.172Z,25.10
2022-08-29T23:38:36.755Z,25.10
2022-08-29T23:53:42.059Z,24.90
